createdAt,value
2023-02-24T00:01:25.143Z,6.87
2023-02-24T00:04:11.532Z,6.76
2023-02-24T00:06:55.979Z,6.91
2023-02-24T00:09:41.022Z,6.76
2023-02-24T00:12:26.457Z,6.96
2023-02-24T00:15:12.944Z,6.78
2023-02-24T00:17:58.536Z,6.68
2023-02-24T00:20:42.682Z,6.89
2023-02-24T00:23:26.680Z,6.79
2023-02-24T00:26:12.918Z,6.60
2023-02-24T00:29:00.176Z,6.69
2023-02-24T00:31:47.385Z,6.58
2023-02-24T00:34:35.587Z,6.86
2023-02-24T00:37:24.059Z,6.51
2023-02-24T00:40:11.478Z,6.95
2023-02-24T00:42:56.465Z,6.97
2023-02-24T00:45:40.693Z,6.98
2023-02-24T00:48:28.365Z,6.98
2023-02-24T00:51:12.382Z,6.85
2023-02-24T00:53:58.062Z,6.90
2023-02-24T00:56:44.729Z,6.66
2023-02-24T00:59:29.249Z,6.87
2023-02-24T01:02:13.076Z,6.87
2023-02-24T01:04:58.708Z,6.66
2023-02-24T01:07:42.572Z,6.48
2023-02-24T01:10:28.451Z,6.32
2023-02-24T01:13:11.206Z,6.27
2023-02-24T01:16:02.430Z,6.51
2023-02-24T01:18:47.770Z,6.56
2023-02-24T01:21:33.032Z,6.78
2023-02-24T01:24:16.843Z,6.32
2023-02-24T01:27:00.971Z,6.28
2023-02-24T01:29:45.523Z,6.31
2023-02-24T01:32:32.126Z,6.41
2023-02-24T01:35:16.308Z,6.34
2023-02-24T01:38:01.846Z,6.14
2023-02-24T01:40:45.673Z,6.09
2023-02-24T01:43:29.746Z,6.10
2023-02-24T01:46:13.804Z,6.08
2023-02-24T01:49:02.779Z,6.04
2023-02-24T01:51:50.673Z,5.87
2023-02-24T01:54:43.125Z,5.91
2023-02-24T01:57:31.544Z,6.05
2023-02-24T02:00:32.861Z,5.92
2023-02-24T02:03:30.692Z,5.97
2023-02-24T02:06:17.897Z,5.86
2023-02-24T02:09:02.903Z,5.92
2023-02-24T02:11:49.321Z,5.92
2023-02-24T02:14:33.699Z,5.79
2023-02-24T02:17:27.240Z,5.71
2023-02-24T02:20:56.018Z,5.86
2023-02-24T02:23:59.017Z,5.81
2023-02-24T02:27:24.878Z,5.84
2023-02-24T02:30:25.560Z,5.53
2023-02-24T02:34:05.650Z,5.74
2023-02-24T02:37:01.807Z,5.48
2023-02-24T02:39:53.056Z,5.52
2023-02-24T02:42:44.160Z,5.64
2023-02-24T02:45:35.519Z,5.74
2023-02-24T02:48:26.543Z,5.76
2023-02-24T02:51:17.755Z,5.67
2023-02-24T02:54:10.301Z,5.64
2023-02-24T02:57:01.766Z,5.53
2023-02-24T02:59:52.726Z,5.62
2023-02-24T03:02:40.152Z,5.50
2023-02-24T03:05:29.844Z,5.56
2023-02-24T03:08:19.799Z,5.53
2023-02-24T03:11:08.922Z,5.59
2023-02-24T03:13:56.283Z,5.48
2023-02-24T03:16:43.002Z,5.57
2023-02-24T03:19:32.273Z,5.49
2023-02-24T03:22:20.730Z,5.52
2023-02-24T03:25:06.463Z,5.55
2023-02-24T03:28:01.775Z,5.51
2023-02-24T03:30:51.000Z,5.50
2023-02-24T03:33:41.067Z,5.49
2023-02-24T03:36:25.261Z,5.53
2023-02-24T03:39:12.169Z,5.34
2023-02-24T03:42:08.259Z,5.48
2023-02-24T03:44:58.240Z,5.26
2023-02-24T03:47:42.768Z,5.31
2023-02-24T03:50:31.840Z,5.52
2023-02-24T03:53:32.163Z,5.34
2023-02-24T03:56:28.918Z,5.29
2023-02-24T03:59:25.321Z,5.43
2023-02-24T04:02:19.465Z,5.36
2023-02-24T04:05:13.835Z,5.48
2023-02-24T04:08:13.124Z,5.35
2023-02-24T04:11:05.506Z,5.47
2023-02-24T04:13:54.308Z,5.34
2023-02-24T04:16:49.685Z,5.31
2023-02-24T04:19:40.617Z,5.45
2023-02-24T04:22:27.700Z,5.44
2023-02-24T04:25:15.928Z,5.32
2023-02-24T04:28:03.234Z,5.40
2023-02-24T04:30:50.983Z,5.46
2023-02-24T04:33:35.736Z,5.44
2023-02-24T04:36:22.305Z,5.34
2023-02-24T04:39:07.803Z,5.39
2023-02-24T04:41:53.189Z,5.32
2023-02-24T04:44:37.210Z,5.34
2023-02-24T04:47:21.336Z,5.34
2023-02-24T04:50:07.039Z,5.28
2023-02-24T04:52:57.385Z,5.23
2023-02-24T04:55:43.337Z,4.96
2023-02-24T04:58:28.742Z,5.23
2023-02-24T05:01:12.940Z,5.19
2023-02-24T05:03:57.020Z,5.16
2023-02-24T05:06:44.152Z,5.28
2023-02-24T05:09:30.318Z,5.28
2023-02-24T05:12:14.965Z,5.24
2023-02-24T05:15:01.332Z,5.34
2023-02-24T05:17:50.586Z,5.44
2023-02-24T05:20:54.764Z,5.61
2023-02-24T05:23:41.049Z,5.53
2023-02-24T05:26:27.373Z,5.67
2023-02-24T05:29:12.599Z,5.69
2023-02-24T05:32:00.069Z,5.70
2023-02-24T05:34:44.198Z,5.90
2023-02-24T05:37:28.602Z,6.08
2023-02-24T05:40:14.901Z,6.40
2023-02-24T05:43:04.200Z,6.50
2023-02-24T05:45:48.225Z,6.69
2023-02-24T05:48:35.275Z,6.65
2023-02-24T05:51:19.647Z,6.94
2023-02-24T05:54:04.822Z,7.12
2023-02-24T05:56:48.900Z,7.20
2023-02-24T05:59:34.678Z,7.28
2023-02-24T06:02:27.494Z,7.12
2023-02-24T06:05:25.411Z,7.08
2023-02-24T06:08:11.845Z,7.32
2023-02-24T06:10:55.862Z,7.37
2023-02-24T06:13:40.207Z,7.10
2023-02-24T06:16:26.277Z,7.56
2023-02-24T06:19:12.326Z,7.66
2023-02-24T06:21:56.954Z,7.87
2023-02-24T06:24:44.313Z,7.40
2023-02-24T06:27:28.583Z,8.03
2023-02-24T06:30:15.294Z,8.05
2023-02-24T06:33:00.901Z,8.42
2023-02-24T06:35:44.909Z,8.34
2023-02-24T06:38:28.967Z,8.50
2023-02-24T06:41:13.893Z,8.44
2023-02-24T06:43:59.034Z,8.31
2023-02-24T06:46:43.502Z,8.24
2023-02-24T06:49:29.350Z,8.11
2023-02-24T06:52:18.608Z,8.15
2023-02-24T06:55:04.768Z,8.48
2023-02-24T06:57:50.256Z,8.74
2023-02-24T07:00:39.079Z,8.79
2023-02-24T07:03:24.664Z,9.08
2023-02-24T07:06:22.111Z,9.01
2023-02-24T07:09:10.465Z,9.29
2023-02-24T07:11:56.883Z,9.36
2023-02-24T07:14:41.947Z,9.24
2023-02-24T07:17:26.593Z,9.19
2023-02-24T07:20:25.184Z,8.91
2023-02-24T07:23:11.146Z,9.20
2023-02-24T07:25:58.556Z,8.97
2023-02-24T07:28:44.915Z,8.60
2023-02-24T07:31:28.962Z,8.55
2023-02-24T07:34:15.193Z,8.79
2023-02-24T07:36:59.364Z,8.75
2023-02-24T07:39:44.502Z,8.34
2023-02-24T07:42:30.689Z,8.89
2023-02-24T07:45:15.547Z,9.17
2023-02-24T07:48:01.370Z,8.86
2023-02-24T07:50:45.604Z,9.02
2023-02-24T07:53:29.512Z,9.04
2023-02-24T07:56:17.859Z,9.08
2023-02-24T07:59:03.919Z,9.28
2023-02-24T08:01:50.862Z,9.06
2023-02-24T08:04:36.503Z,9.03
2023-02-24T08:07:25.006Z,10.28
2023-02-24T08:10:24.490Z,10.57
2023-02-24T08:13:12.097Z,10.75
2023-02-24T08:15:57.878Z,10.11
2023-02-24T08:18:49.006Z,10.07
2023-02-24T08:21:38.199Z,10.39
2023-02-24T08:24:25.425Z,10.52
2023-02-24T08:27:09.464Z,10.82
2023-02-24T08:30:00.003Z,11.37
2023-02-24T08:32:46.732Z,11.33
2023-02-24T08:35:35.764Z,10.68
2023-02-24T08:38:24.236Z,11.29
2023-02-24T08:41:18.154Z,11.25
2023-02-24T08:44:03.059Z,11.73
2023-02-24T08:46:50.548Z,11.79
2023-02-24T08:49:34.847Z,11.94
2023-02-24T08:52:20.406Z,12.15
2023-02-24T08:55:10.822Z,12.04
2023-02-24T08:57:56.337Z,12.16
2023-02-24T09:00:49.343Z,11.50
2023-02-24T09:03:35.352Z,11.80
2023-02-24T09:06:25.561Z,11.55
2023-02-24T09:09:18.826Z,11.73
2023-02-24T09:12:03.459Z,11.49
2023-02-24T09:14:49.484Z,11.67
2023-02-24T09:17:50.305Z,11.81
2023-02-24T09:20:54.141Z,12.14
2023-02-24T09:23:46.100Z,12.32
2023-02-24T09:26:33.130Z,11.83
2023-02-24T09:29:31.303Z,11.32
2023-02-24T09:32:15.355Z,11.37
2023-02-24T09:34:59.418Z,11.04
2023-02-24T09:37:44.662Z,11.73
2023-02-24T09:40:40.205Z,11.05
2023-02-24T09:43:28.001Z,11.97
2023-02-24T09:46:15.492Z,11.01
2023-02-24T09:49:06.766Z,11.69
2023-02-24T09:52:00.628Z,12.37
2023-02-24T09:55:05.854Z,12.52
2023-02-24T09:58:13.366Z,11.44
2023-02-24T10:01:21.306Z,11.61
2023-02-24T10:04:36.124Z,11.36
2023-02-24T10:07:28.254Z,10.92
2023-02-24T10:10:20.823Z,11.53
2023-02-24T10:13:17.156Z,11.46
2023-02-24T10:16:07.234Z,12.17
2023-02-24T10:19:01.424Z,11.81
2023-02-24T10:22:00.489Z,11.40
2023-02-24T10:24:48.804Z,11.22
2023-02-24T10:27:39.695Z,12.19
2023-02-24T10:30:41.269Z,12.15
2023-02-24T10:33:37.866Z,12.76
2023-02-24T10:36:30.656Z,12.64
2023-02-24T10:39:20.477Z,12.02
2023-02-24T10:42:20.196Z,12.65
2023-02-24T10:45:17.524Z,12.41
2023-02-24T10:48:02.204Z,13.35
2023-02-24T10:50:56.002Z,12.82
2023-02-24T10:53:41.172Z,11.66
2023-02-24T10:56:41.761Z,12.55
2023-02-24T10:59:58.491Z,12.67
2023-02-24T11:03:07.115Z,12.12
2023-02-24T11:06:08.298Z,12.30
2023-02-24T11:09:18.729Z,13.04
2023-02-24T11:12:30.662Z,12.78
2023-02-24T11:15:37.792Z,11.12
2023-02-24T11:18:25.645Z,12.39
2023-02-24T11:21:14.486Z,12.53
2023-02-24T11:24:03.104Z,11.89
2023-02-24T11:26:48.422Z,12.11
2023-02-24T11:29:46.715Z,12.57
2023-02-24T11:32:45.591Z,12.30
2023-02-24T11:35:38.475Z,11.13
2023-02-24T11:38:35.251Z,11.00
2023-02-24T11:41:26.067Z,11.81
2023-02-24T11:44:17.386Z,11.97
2023-02-24T11:47:07.441Z,12.04
2023-02-24T11:49:54.541Z,12.30
2023-02-24T11:52:46.890Z,12.34
2023-02-24T11:55:36.237Z,11.68
2023-02-24T11:58:26.648Z,11.38
2023-02-24T12:01:16.169Z,11.57
2023-02-24T12:04:12.080Z,10.45
2023-02-24T12:07:02.114Z,10.29
2023-02-24T12:09:54.845Z,11.00
2023-02-24T12:12:45.880Z,10.93
2023-02-24T12:15:34.307Z,11.16
2023-02-24T12:18:25.438Z,10.89
2023-02-24T12:21:14.957Z,11.42
2023-02-24T12:24:01.440Z,11.28
2023-02-24T12:26:56.117Z,11.23
2023-02-24T12:29:55.055Z,11.16
2023-02-24T12:32:58.520Z,10.12
2023-02-24T12:35:49.365Z,10.85
2023-02-24T12:38:46.919Z,10.26
2023-02-24T12:41:50.261Z,10.62
2023-02-24T12:44:44.192Z,11.28
2023-02-24T12:47:40.371Z,11.57
2023-02-24T12:50:34.161Z,11.06
2023-02-24T12:53:23.793Z,11.50
2023-02-24T12:56:16.854Z,11.38
2023-02-24T12:59:06.309Z,11.22
2023-02-24T13:01:56.300Z,11.03
2023-02-24T13:04:46.824Z,10.95
2023-02-24T13:07:50.183Z,11.26
2023-02-24T13:10:43.446Z,10.65
2023-02-24T13:13:33.395Z,11.01
2023-02-24T13:16:29.624Z,10.02
2023-02-24T13:19:23.461Z,11.04
2023-02-24T13:22:20.180Z,11.36
2023-02-24T13:25:21.576Z,12.04
2023-02-24T13:28:19.416Z,11.92
2023-02-24T13:31:06.604Z,11.68
2023-02-24T13:33:52.957Z,11.95
2023-02-24T13:36:48.282Z,11.79
2023-02-24T13:39:35.606Z,11.60
2023-02-24T13:42:25.101Z,11.49
2023-02-24T13:45:20.863Z,11.70
2023-02-24T13:48:19.737Z,10.81
2023-02-24T13:51:24.168Z,11.17
2023-02-24T13:54:24.446Z,10.34
2023-02-24T13:57:27.300Z,10.35
2023-02-24T14:00:22.034Z,9.80
2023-02-24T14:03:12.740Z,10.50
2023-02-24T14:05:57.505Z,10.79
2023-02-24T14:08:47.381Z,10.36
2023-02-24T14:11:36.062Z,10.60
2023-02-24T14:14:20.512Z,10.31
2023-02-24T14:17:04.717Z,10.31
2023-02-24T14:19:48.930Z,10.01
2023-02-24T14:22:34.763Z,9.67
2023-02-24T14:25:20.714Z,9.57
2023-02-24T14:28:05.078Z,9.94
2023-02-24T14:30:54.859Z,9.81
2023-02-24T14:33:40.625Z,10.09
2023-02-24T14:36:27.438Z,9.89
2023-02-24T14:39:17.153Z,10.15
2023-02-24T14:42:15.077Z,9.47
2023-02-24T14:45:00.193Z,8.91
2023-02-24T14:47:44.409Z,9.54
2023-02-24T14:50:31.781Z,9.31
2023-02-24T14:53:18.747Z,8.97
2023-02-24T14:56:06.293Z,9.22
2023-02-24T14:58:57.048Z,8.66
2023-02-24T15:01:43.609Z,8.88
2023-02-24T15:04:35.245Z,9.18
2023-02-24T15:07:23.815Z,9.23
2023-02-24T15:10:21.191Z,9.08
2023-02-24T15:13:13.899Z,9.36
2023-02-24T15:16:07.124Z,9.46
2023-02-24T15:18:52.770Z,9.57
2023-02-24T15:21:43.083Z,9.58
2023-02-24T15:24:28.986Z,8.93
2023-02-24T15:27:23.854Z,9.09
2023-02-24T15:30:26.417Z,9.15
2023-02-24T15:33:23.322Z,8.45
2023-02-24T15:36:11.826Z,8.72
2023-02-24T15:38:59.017Z,9.16
2023-02-24T15:41:44.875Z,8.86
2023-02-24T15:44:30.994Z,8.81
2023-02-24T15:47:24.006Z,8.62
2023-02-24T15:50:10.699Z,8.47
2023-02-24T15:52:56.044Z,8.48
2023-02-24T15:55:42.827Z,8.81
2023-02-24T15:58:27.405Z,8.84
2023-02-24T16:01:12.840Z,8.95
2023-02-24T16:03:56.957Z,8.60
2023-02-24T16:06:54.038Z,7.76
2023-02-24T16:09:42.035Z,8.43
2023-02-24T16:12:29.545Z,8.38
2023-02-24T16:15:20.325Z,8.35
2023-02-24T16:18:04.524Z,8.17
2023-02-24T16:20:54.479Z,8.48
2023-02-24T16:23:40.892Z,8.44
2023-02-24T16:26:25.347Z,8.29
2023-02-24T16:29:15.477Z,8.05
2023-02-24T16:31:59.588Z,8.28
2023-02-24T16:34:43.631Z,8.24
2023-02-24T16:37:29.880Z,8.30
2023-02-24T16:40:23.262Z,8.48
2023-02-24T16:43:07.039Z,8.46
2023-02-24T16:45:55.157Z,8.20
2023-02-24T16:48:40.642Z,8.48
2023-02-24T16:51:24.612Z,8.55
2023-02-24T16:54:08.749Z,8.68
2023-02-24T16:56:54.474Z,8.83
2023-02-24T16:59:38.288Z,8.94
2023-02-24T17:02:25.676Z,8.84
2023-02-24T17:05:17.289Z,8.69
2023-02-24T17:08:01.120Z,8.61
2023-02-24T17:10:48.111Z,8.63
2023-02-24T17:13:33.724Z,8.23
2023-02-24T17:16:17.668Z,8.43
2023-02-24T17:19:01.391Z,8.52
2023-02-24T17:21:46.138Z,8.39
2023-02-24T17:24:30.071Z,8.17
2023-02-24T17:27:13.953Z,8.35
2023-02-24T17:29:59.202Z,8.39
2023-02-24T17:32:43.475Z,8.48
2023-02-24T17:35:28.428Z,8.53
2023-02-24T17:38:13.580Z,8.41
2023-02-24T17:40:57.709Z,8.43
2023-02-24T17:43:41.730Z,8.49
2023-02-24T17:46:27.152Z,8.28
2023-02-24T17:49:11.380Z,8.21
2023-02-24T17:51:55.535Z,7.46
2023-02-24T17:54:39.462Z,8.26
2023-02-24T17:57:23.246Z,8.21
2023-02-24T18:00:08.816Z,8.19
2023-02-24T18:03:01.675Z,8.01
2023-02-24T18:05:47.151Z,8.10
2023-02-24T18:08:31.708Z,8.07
2023-02-24T18:11:17.864Z,8.16
2023-02-24T18:14:01.925Z,7.94
2023-02-24T18:16:46.248Z,8.13
2023-02-24T18:19:31.839Z,8.07
2023-02-24T18:22:16.138Z,7.85
2023-02-24T18:25:01.254Z,7.99
2023-02-24T18:27:45.194Z,7.88
2023-02-24T18:30:29.431Z,7.84
2023-02-24T18:33:13.743Z,7.62
2023-02-24T18:36:01.305Z,7.80
2023-02-24T18:38:45.900Z,7.74
2023-02-24T18:41:31.902Z,7.64
2023-02-24T18:44:15.802Z,7.58
2023-02-24T18:46:59.868Z,7.55
2023-02-24T18:49:43.795Z,7.58
2023-02-24T18:52:29.507Z,7.64
2023-02-24T18:55:13.478Z,7.52
2023-02-24T18:57:57.461Z,7.42
2023-02-24T19:00:41.692Z,7.08
2023-02-24T19:03:26.290Z,6.94
2023-02-24T19:06:10.962Z,6.86
2023-02-24T19:09:00.105Z,6.50
2023-02-24T19:11:44.410Z,6.44
2023-02-24T19:14:28.525Z,6.32
2023-02-24T19:17:12.830Z,6.33
2023-02-24T19:19:56.808Z,6.31
2023-02-24T19:22:41.468Z,6.23
2023-02-24T19:25:27.243Z,6.21
2023-02-24T19:28:13.119Z,6.11
2023-02-24T19:30:57.228Z,6.15
2023-02-24T19:33:41.230Z,6.05
2023-02-24T19:36:25.467Z,5.78
2023-02-24T19:39:12.285Z,5.58
2023-02-24T19:41:58.076Z,5.69
2023-02-24T19:44:42.367Z,5.69
2023-02-24T19:47:26.760Z,5.68
2023-02-24T19:50:12.673Z,5.64
2023-02-24T19:52:56.799Z,5.49
2023-02-24T19:55:40.814Z,5.67
2023-02-24T19:58:27.363Z,5.54
2023-02-24T20:01:13.740Z,5.53
2023-02-24T20:04:00.259Z,5.36
2023-02-24T20:06:44.332Z,5.33
2023-02-24T20:09:29.070Z,5.16
2023-02-24T20:12:13.291Z,5.18
2023-02-24T20:14:59.345Z,5.25
2023-02-24T20:17:43.468Z,4.78
2023-02-24T20:20:27.554Z,4.64
2023-02-24T20:23:13.557Z,4.79
2023-02-24T20:25:58.227Z,5.10
2023-02-24T20:28:42.488Z,5.25
2023-02-24T20:31:28.435Z,5.20
2023-02-24T20:34:13.677Z,5.30
2023-02-24T20:36:58.040Z,5.31
2023-02-24T20:39:42.229Z,5.25
2023-02-24T20:42:26.636Z,5.16
2023-02-24T20:45:12.623Z,5.42
2023-02-24T20:47:58.162Z,5.19
2023-02-24T20:50:43.428Z,5.04
2023-02-24T20:53:27.636Z,5.16
2023-02-24T20:56:19.471Z,5.40
2023-02-24T20:59:06.385Z,5.47
2023-02-24T21:01:51.448Z,5.11
2023-02-24T21:04:37.275Z,5.21
2023-02-24T21:07:21.306Z,5.08
2023-02-24T21:10:06.389Z,5.36
2023-02-24T21:12:52.791Z,5.36
2023-02-24T21:15:36.973Z,5.45
2023-02-24T21:18:22.148Z,5.62
2023-02-24T21:21:08.926Z,5.66
2023-02-24T21:23:53.395Z,5.62
2023-02-24T21:26:37.473Z,5.71
2023-02-24T21:29:21.523Z,5.62
2023-02-24T21:32:05.856Z,5.77
2023-02-24T21:34:50.040Z,5.87
2023-02-24T21:37:36.064Z,5.74
2023-02-24T21:40:20.305Z,5.93
2023-02-24T21:43:05.862Z,5.82
2023-02-24T21:45:49.812Z,5.66
2023-02-24T21:48:33.797Z,5.49
2023-02-24T21:51:18.348Z,4.70
2023-02-24T21:54:04.927Z,5.58
2023-02-24T21:56:49.079Z,5.63
2023-02-24T21:59:33.571Z,5.79
2023-02-24T22:02:17.998Z,5.89
2023-02-24T22:05:01.884Z,5.53
2023-02-24T22:07:48.236Z,6.04
2023-02-24T22:10:33.365Z,6.05
2023-02-24T22:13:17.400Z,6.10
2023-02-24T22:16:02.303Z,6.15
2023-02-24T22:18:46.661Z,6.17
2023-02-24T22:21:31.350Z,6.31
2023-02-24T22:24:17.381Z,6.00
2023-02-24T22:27:02.707Z,5.94
2023-02-24T22:29:46.599Z,6.02
2023-02-24T22:32:30.564Z,6.15
2023-02-24T22:35:14.684Z,6.18
2023-02-24T22:37:58.636Z,6.15
2023-02-24T22:40:42.601Z,6.65
2023-02-24T22:43:28.992Z,6.67
2023-02-24T22:46:15.075Z,6.51
2023-02-24T22:49:00.182Z,6.63
2023-02-24T22:51:44.047Z,6.58
2023-02-24T22:54:27.924Z,6.41
2023-02-24T22:57:12.422Z,6.45
2023-02-24T22:59:57.687Z,6.49
2023-02-24T23:02:41.722Z,6.47
2023-02-24T23:05:25.505Z,6.26
2023-02-24T23:08:10.220Z,6.41
2023-02-24T23:10:54.690Z,6.49
2023-02-24T23:13:38.514Z,6.25
2023-02-24T23:16:26.392Z,6.16
2023-02-24T23:19:13.713Z,6.19
2023-02-24T23:21:57.531Z,6.30
2023-02-24T23:24:41.699Z,6.40
2023-02-24T23:27:25.772Z,6.47
2023-02-24T23:30:12.341Z,6.46
2023-02-24T23:32:57.866Z,6.47
2023-02-24T23:35:42.421Z,6.24
2023-02-24T23:38:26.567Z,6.19
2023-02-24T23:41:11.516Z,6.04
2023-02-24T23:43:55.407Z,6.12
2023-02-24T23:46:39.532Z,6.12
2023-02-24T23:49:24.879Z,6.17
2023-02-24T23:52:10.215Z,5.82
2023-02-24T23:54:54.383Z,5.96
2023-02-24T23:57:38.434Z,6.01
